Time;durP1;ratioP1;P1;durP2;ratioP2;P2;SDS_P1;SDS_P2;PMS_P1;PMS_P2;Temp;Humidity;BMP_temperature;BMP_pressure;BME280_temperature;BME280_humidity;BME280_pressure;Samples;Min_cycle;Max_cycle;Signal;HPM_P1;HPM_P2
2023/10/24 00:02:36;;;;;;;4.13;3.63;;;;;;;;;;4925066;29;20189;-83
2023/10/24 00:05:40;;;;;;;3.87;3.40;;;;;;;;;;4902222;29;20193;-83
2023/10/24 00:08:45;;;;;;;8.87;4.17;;;;;;;;;;4924197;29;20184;-83
2023/10/24 00:11:49;;;;;;;6.97;3.90;;;;;;;;;;4902014;29;20185;-83
2023/10/24 00:14:57;;;;;;;4.90;3.80;;;;;;;;;;4924176;29;20192;-83
2023/10/24 00:18:01;;;;;;;6.33;3.80;;;;;;;;;;4912852;29;20193;-83
2023/10/24 00:21:06;;;;;;;5.40;4.00;;;;;;;;;;4924325;29;20532;-83
2023/10/24 00:24:11;;;;;;;6.03;3.63;;;;;;;;;;4924953;29;20189;-83
2023/10/24 00:27:15;;;;;;;4.50;3.40;;;;;;;;;;4902421;29;20228;-83
2023/10/24 00:30:19;;;;;;;4.53;3.67;;;;;;;;;;4912174;29;20213;-83
2023/10/24 00:33:24;;;;;;;4.77;3.80;;;;;;;;;;4901999;29;20523;-84
2023/10/24 00:36:28;;;;;;;7.67;4.17;;;;;;;;;;4911118;29;20694;-83
2023/10/24 00:39:32;;;;;;;4.67;3.80;;;;;;;;;;4910650;29;20216;-83
2023/10/24 00:42:36;;;;;;;5.63;4.00;;;;;;;;;;4889167;29;20189;-83
2023/10/24 00:45:41;;;;;;;4.87;3.80;;;;;;;;;;4910442;29;20189;-83
2023/10/24 00:48:45;;;;;;;6.03;3.73;;;;;;;;;;4899058;29;20185;-83
2023/10/24 00:51:51;;;;;;;6.13;4.17;;;;;;;;;;4920858;29;20193;-83
2023/10/24 00:54:55;;;;;;;6.10;3.80;;;;;;;;;;4909905;29;20189;-83
2023/10/24 00:58:01;;;;;;;4.97;3.57;;;;;;;;;;4910347;29;20192;-83
2023/10/24 01:01:10;;;;;;;5.90;3.63;;;;;;;;;;4909980;29;20639;-83
2023/10/24 01:04:14;;;;;;;4.27;3.27;;;;;;;;;;4909803;29;20177;-83
2023/10/24 01:07:19;;;;;;;4.67;3.70;;;;;;;;;;4909872;29;20224;-83
2023/10/24 01:10:23;;;;;;;6.33;3.77;;;;;;;;;;4921512;29;20189;-83
2023/10/24 01:13:28;;;;;;;6.23;3.53;;;;;;;;;;4921259;29;20193;-83
2023/10/24 01:16:42;;;;;;;5.30;3.73;;;;;;;;;;4909792;29;20221;-83
2023/10/24 01:19:46;;;;;;;5.07;3.70;;;;;;;;;;4887966;29;20213;-83
2023/10/24 01:22:50;;;;;;;5.97;3.80;;;;;;;;;;4909458;29;20662;-83
2023/10/24 01:25:57;;;;;;;5.03;3.57;;;;;;;;;;4910169;29;20228;-83
2023/10/24 01:29:01;;;;;;;5.17;3.80;;;;;;;;;;4921821;29;20189;-83
2023/10/24 01:32:05;;;;;;;5.73;3.83;;;;;;;;;;4909788;29;20559;-83
2023/10/24 01:35:09;;;;;;;5.37;4.07;;;;;;;;;;4898734;29;20186;-83
2023/10/24 01:38:14;;;;;;;7.17;4.37;;;;;;;;;;4907601;29;20184;-84
2023/10/24 01:41:17;;;;;;;7.03;4.60;;;;;;;;;;4910726;29;20189;-84
2023/10/24 01:44:22;;;;;;;9.00;4.07;;;;;;;;;;4899645;29;20189;-84
2023/10/24 01:47:25;;;;;;;4.77;3.73;;;;;;;;;;4910810;29;20228;-84
2023/10/24 01:50:30;;;;;;;5.07;3.53;;;;;;;;;;4910519;29;20189;-84
2023/10/24 01:53:34;;;;;;;5.47;4.17;;;;;;;;;;4899535;29;20185;-84
2023/10/24 01:56:38;;;;;;;5.20;3.90;;;;;;;;;;4909678;29;20228;-83
2023/10/24 01:59:42;;;;;;;6.17;3.80;;;;;;;;;;4899748;29;20217;-84
2023/10/24 02:02:47;;;;;;;5.67;3.83;;;;;;;;;;4900039;29;20192;-84
2023/10/24 02:05:51;;;;;;;4.37;3.90;;;;;;;;;;4899541;29;20229;-84
2023/10/24 02:08:55;;;;;;;6.37;4.03;;;;;;;;;;4921747;29;20189;-83
2023/10/24 02:12:01;;;;;;;4.60;3.90;;;;;;;;;;4899968;29;20197;-84
2023/10/24 02:15:05;;;;;;;5.37;4.30;;;;;;;;;;4889545;29;20213;-84
2023/10/24 02:18:10;;;;;;;6.33;4.50;;;;;;;;;;4946020;23;20241;-83
2023/10/24 02:21:14;;;;;;;7.63;4.70;;;;;;;;;;4899135;29;20188;-83
2023/10/24 02:24:18;;;;;;;6.40;4.77;;;;;;;;;;4909874;29;20535;-83
2023/10/24 02:27:22;;;;;;;5.87;4.60;;;;;;;;;;4889307;29;20251;-83
2023/10/24 02:30:27;;;;;;;8.23;5.00;;;;;;;;;;4890936;29;20531;-83
2023/10/24 02:33:32;;;;;;;5.77;4.53;;;;;;;;;;4901621;29;20635;-82
2023/10/24 02:36:36;;;;;;;7.00;4.37;;;;;;;;;;4901401;29;20585;-84
2023/10/24 02:39:40;;;;;;;4.57;4.17;;;;;;;;;;4890398;29;20218;-82
2023/10/24 02:42:44;;;;;;;8.27;4.60;;;;;;;;;;4901562;29;20193;-83
2023/10/24 02:45:49;;;;;;;6.27;4.33;;;;;;;;;;4879947;29;20185;-82
2023/10/24 02:48:53;;;;;;;4.10;3.67;;;;;;;;;;4901136;29;20185;-82
2023/10/24 02:51:57;;;;;;;6.23;4.30;;;;;;;;;;4889352;29;20189;-82
2023/10/24 02:55:03;;;;;;;9.43;4.57;;;;;;;;;;4900932;29;20190;-83
2023/10/24 02:58:09;;;;;;;5.63;4.20;;;;;;;;;;4890382;29;20229;-82
2023/10/24 03:01:13;;;;;;;4.73;3.97;;;;;;;;;;4890691;29;20512;-82
2023/10/24 03:04:17;;;;;;;5.37;4.30;;;;;;;;;;4901624;29;20185;-82
2023/10/24 03:07:24;;;;;;;6.43;3.97;;;;;;;;;;4879748;29;20229;-82
2023/10/24 03:10:29;;;;;;;6.73;4.70;;;;;;;;;;4879717;29;20190;-82
2023/10/24 03:13:33;;;;;;;7.57;5.10;;;;;;;;;;4879371;29;20189;-83
2023/10/24 03:16:37;;;;;;;5.77;3.97;;;;;;;;;;4900813;29;20552;-82
2023/10/24 03:19:42;;;;;;;4.20;3.67;;;;;;;;;;4889903;29;20213;-83
2023/10/24 03:22:46;;;;;;;4.77;4.20;;;;;;;;;;4901647;29;20189;-82
2023/10/24 03:25:51;;;;;;;5.27;4.10;;;;;;;;;;4900584;29;20643;-81
2023/10/24 03:28:55;;;;;;;4.80;4.23;;;;;;;;;;4900735;29;20197;-82
2023/10/24 03:31:59;;;;;;;4.97;4.27;;;;;;;;;;4900872;29;20189;-83
2023/10/24 03:35:04;;;;;;;5.17;4.20;;;;;;;;;;4901147;29;20632;-82
2023/10/24 03:38:08;;;;;;;8.43;4.40;;;;;;;;;;4889590;29;20225;-81
2023/10/24 03:41:12;;;;;;;6.10;4.30;;;;;;;;;;4900944;29;20186;-83
2023/10/24 03:44:16;;;;;;;5.80;4.30;;;;;;;;;;4900278;29;20189;-83
2023/10/24 03:47:21;;;;;;;6.83;5.37;;;;;;;;;;4901397;29;20706;-82
2023/10/24 03:50:25;;;;;;;8.03;5.27;;;;;;;;;;4900339;29;20655;-81
2023/10/24 03:53:28;;;;;;;6.63;4.93;;;;;;;;;;4900528;29;20186;-82
2023/10/24 03:56:33;;;;;;;7.77;5.17;;;;;;;;;;4901121;29;20225;-82
2023/10/24 03:59:37;;;;;;;5.70;4.63;;;;;;;;;;4900283;29;20221;-81
2023/10/24 04:02:41;;;;;;;5.77;5.13;;;;;;;;;;4900072;29;20193;-83
2023/10/24 04:05:45;;;;;;;9.37;6.30;;;;;;;;;;4900816;29;20193;-81
2023/10/24 04:08:50;;;;;;;9.77;7.00;;;;;;;;;;4901134;29;20185;-82
2023/10/24 04:11:54;;;;;;;6.87;5.30;;;;;;;;;;4899997;29;20182;-82
2023/10/24 04:14:58;;;;;;;7.87;5.37;;;;;;;;;;4889678;29;20185;-82
2023/10/24 04:18:03;;;;;;;7.47;5.07;;;;;;;;;;4900130;29;20237;-83
2023/10/24 04:21:07;;;;;;;8.57;5.90;;;;;;;;;;4900843;29;20217;-83
2023/10/24 04:24:12;;;;;;;6.27;5.50;;;;;;;;;;4899919;29;20193;-83
2023/10/24 04:27:16;;;;;;;7.10;5.77;;;;;;;;;;4900058;29;20225;-82
2023/10/24 04:30:20;;;;;;;7.67;5.50;;;;;;;;;;4900939;29;20190;-81
2023/10/24 04:33:24;;;;;;;7.10;6.07;;;;;;;;;;4900982;29;20531;-83
2023/10/24 04:36:28;;;;;;;5.87;5.10;;;;;;;;;;4901168;29;20190;-82
2023/10/24 04:39:33;;;;;;;7.10;5.10;;;;;;;;;;4900872;29;20217;-83
2023/10/24 04:42:37;;;;;;;8.37;6.23;;;;;;;;;;4899689;29;20189;-83
2023/10/24 04:45:41;;;;;;;8.07;6.00;;;;;;;;;;4900096;29;20189;-82
2023/10/24 04:48:45;;;;;;;7.80;5.63;;;;;;;;;;4899842;29;20599;-81
2023/10/24 04:51:51;;;;;;;7.50;5.60;;;;;;;;;;4899869;29;20182;-81
2023/10/24 04:54:55;;;;;;;7.33;5.90;;;;;;;;;;4888761;29;20190;-83
2023/10/24 04:57:59;;;;;;;12.33;5.73;;;;;;;;;;4888427;29;20225;-81
2023/10/24 05:01:04;;;;;;;10.23;5.43;;;;;;;;;;4900228;29;20226;-83
2023/10/24 05:04:08;;;;;;;7.83;5.47;;;;;;;;;;4899747;29;20540;-81
2023/10/24 05:07:12;;;;;;;6.87;5.37;;;;;;;;;;4899464;29;20229;-82
2023/10/24 05:10:16;;;;;;;5.60;4.87;;;;;;;;;;4899564;29;20190;-81
2023/10/24 05:13:20;;;;;;;7.80;5.43;;;;;;;;;;4899898;29;20186;-82
2023/10/24 05:16:24;;;;;;;8.27;6.13;;;;;;;;;;4902664;29;20217;-82
2023/10/24 05:19:28;;;;;;;7.67;5.67;;;;;;;;;;4902870;29;20185;-82
2023/10/24 05:22:33;;;;;;;6.47;5.83;;;;;;;;;;4903645;29;20190;-81
2023/10/24 05:25:37;;;;;;;6.83;6.03;;;;;;;;;;4903386;29;20194;-82
2023/10/24 05:28:41;;;;;;;8.17;5.57;;;;;;;;;;4901844;29;20190;-81
2023/10/24 05:31:46;;;;;;;7.03;6.10;;;;;;;;;;4902342;29;20194;-83
2023/10/24 05:34:50;;;;;;;7.77;5.50;;;;;;;;;;4891643;29;20189;-83
2023/10/24 05:37:55;;;;;;;8.20;5.80;;;;;;;;;;4902196;29;20221;-83
2023/10/24 05:41:00;;;;;;;6.67;5.83;;;;;;;;;;4902567;29;20217;-84
2023/10/24 05:44:06;;;;;;;8.53;7.20;;;;;;;;;;4881067;29;20185;-83
2023/10/24 05:47:10;;;;;;;7.90;6.67;;;;;;;;;;4870713;29;20229;-82
2023/10/24 05:50:17;;;;;;;8.97;6.50;;;;;;;;;;4891140;29;20190;-83
2023/10/24 05:53:22;;;;;;;10.03;7.07;;;;;;;;;;4901985;29;20657;-82
2023/10/24 05:56:26;;;;;;;12.50;7.70;;;;;;;;;;4870205;29;20651;-82
2023/10/24 05:59:33;;;;;;;12.47;7.60;;;;;;;;;;4902228;29;20182;-83
2023/10/24 06:02:39;;;;;;;9.33;7.83;;;;;;;;;;4879943;29;20189;-83
2023/10/24 06:05:44;;;;;;;10.03;8.00;;;;;;;;;;4891033;29;20194;-82
2023/10/24 06:08:48;;;;;;;9.93;8.00;;;;;;;;;;4891490;29;20198;-82
2023/10/24 06:11:53;;;;;;;9.60;6.80;;;;;;;;;;4901552;29;20182;-83
2023/10/24 06:14:57;;;;;;;14.53;7.50;;;;;;;;;;4891314;29;20650;-81
2023/10/24 06:18:03;;;;;;;9.60;7.27;;;;;;;;;;4901540;29;20232;-82
2023/10/24 06:21:08;;;;;;;14.30;12.80;;;;;;;;;;4901073;29;20217;-87
2023/10/24 06:24:12;;;;;;;12.17;10.37;;;;;;;;;;4901823;29;20194;-82
2023/10/24 06:27:20;;;;;;;12.47;9.03;;;;;;;;;;4880067;29;20232;-82
2023/10/24 06:30:25;;;;;;;9.20;8.20;;;;;;;;;;4869290;29;20198;-82
2023/10/24 06:33:32;;;;;;;13.87;9.47;;;;;;;;;;4901458;29;20189;-83
2023/10/24 06:36:36;;;;;;;9.63;8.60;;;;;;;;;;4879668;29;20224;-83
2023/10/24 06:39:40;;;;;;;10.50;8.03;;;;;;;;;;4880451;29;20185;-83
2023/10/24 06:42:45;;;;;;;9.50;7.63;;;;;;;;;;4869167;29;20182;-82
2023/10/24 06:45:51;;;;;;;9.30;6.97;;;;;;;;;;4880430;29;20193;-83
2023/10/24 06:48:55;;;;;;;11.03;7.67;;;;;;;;;;4879821;29;20525;-82
2023/10/24 06:51:59;;;;;;;9.63;8.47;;;;;;;;;;4879444;29;20194;-83
2023/10/24 06:55:04;;;;;;;9.30;8.27;;;;;;;;;;4901061;29;20193;-82
2023/10/24 06:58:08;;;;;;;10.73;8.33;;;;;;;;;;4889991;29;20229;-82
2023/10/24 07:01:14;;;;;;;10.30;8.10;;;;;;;;;;4900712;29;20222;-83
2023/10/24 07:04:18;;;;;;;11.60;9.30;;;;;;;;;;4890124;29;20194;-83
2023/10/24 07:07:22;;;;;;;9.47;8.23;;;;;;;;;;4900734;29;20232;-83
2023/10/24 07:10:27;;;;;;;9.77;8.20;;;;;;;;;;4900541;29;20190;-83
2023/10/24 07:13:31;;;;;;;8.20;7.33;;;;;;;;;;4901986;29;20197;-83
2023/10/24 07:16:35;;;;;;;14.43;9.33;;;;;;;;;;4900736;29;20568;-83
2023/10/24 07:19:39;;;;;;;11.00;9.20;;;;;;;;;;4890301;29;20551;-82
2023/10/24 07:22:43;;;;;;;11.87;9.67;;;;;;;;;;4900183;29;20188;-82
2023/10/24 07:25:55;;;;;;;12.63;8.77;;;;;;;;;;4901317;29;20190;-82
2023/10/24 07:28:59;;;;;;;9.43;7.40;;;;;;;;;;4899971;29;20190;-83
2023/10/24 07:32:04;;;;;;;8.83;6.70;;;;;;;;;;4900892;29;20516;-83
2023/10/24 07:35:08;;;;;;;9.27;6.50;;;;;;;;;;4900655;29;20194;-83
2023/10/24 07:38:12;;;;;;;10.33;7.53;;;;;;;;;;4888394;29;20699;-81
2023/10/24 07:41:16;;;;;;;10.73;7.57;;;;;;;;;;4900924;29;20218;-83
2023/10/24 07:44:20;;;;;;;8.13;7.00;;;;;;;;;;4900223;29;20200;-83
2023/10/24 07:47:26;;;;;;;7.77;7.00;;;;;;;;;;4900170;29;20221;-83
2023/10/24 07:50:31;;;;;;;7.77;7.07;;;;;;;;;;4900081;29;20194;-83
2023/10/24 07:53:35;;;;;;;9.13;7.43;;;;;;;;;;4900069;29;20635;-82
2023/10/24 07:56:42;;;;;;;11.63;8.37;;;;;;;;;;4900766;29;20225;-83
2023/10/24 07:59:46;;;;;;;8.03;7.20;;;;;;;;;;4899872;29;20193;-82
2023/10/24 08:02:50;;;;;;;9.33;7.93;;;;;;;;;;4899602;29;20186;-83
2023/10/24 08:05:54;;;;;;;20.33;9.27;;;;;;;;;;4900595;29;20643;-82
2023/10/24 08:08:58;;;;;;;10.27;9.27;;;;;;;;;;4900302;29;20202;-83
2023/10/24 08:12:03;;;;;;;13.90;10.80;;;;;;;;;;4900358;29;20535;-82
2023/10/24 08:15:08;;;;;;;11.13;9.33;;;;;;;;;;4899303;29;20670;-83
2023/10/24 08:18:16;;;;;;;10.07;9.07;;;;;;;;;;4972803;23;20610;-83
2023/10/24 08:21:21;;;;;;;11.43;9.43;;;;;;;;;;4926984;29;20595;-82
2023/10/24 08:24:29;;;;;;;9.67;7.90;;;;;;;;;;4937557;29;20198;-83
2023/10/24 08:27:35;;;;;;;11.40;9.27;;;;;;;;;;4939647;29;20227;-82
2023/10/24 08:30:39;;;;;;;9.17;8.17;;;;;;;;;;4917886;29;20210;-83
2023/10/24 08:33:43;;;;;;;9.97;7.50;;;;;;;;;;4929474;29;20196;-83
2023/10/24 08:36:48;;;;;;;9.43;7.17;;;;;;;;;;4929014;29;20187;-83
2023/10/24 08:39:56;;;;;;;10.73;8.27;;;;;;;;;;4941106;29;20192;-83
2023/10/24 08:43:03;;;;;;;11.83;8.27;;;;;;;;;;4939271;29;20194;-83
2023/10/24 08:46:09;;;;;;;12.07;7.87;;;;;;;;;;4918880;29;20200;-83
2023/10/24 08:49:15;;;;;;;9.77;7.97;;;;;;;;;;4930392;29;20188;-83
2023/10/24 08:52:19;;;;;;;10.67;8.20;;;;;;;;;;4933224;29;20184;-83
2023/10/24 08:55:27;;;;;;;9.93;8.07;;;;;;;;;;4943989;29;20195;-83
2023/10/24 08:58:37;;;;;;;11.30;8.00;;;;;;;;;;4932635;29;20228;-83
2023/10/24 09:01:52;;;;;;;11.10;9.13;;;;;;;;;;4943092;29;20714;-83
2023/10/24 09:04:56;;;;;;;12.47;8.43;;;;;;;;;;4929244;29;20205;-81
2023/10/24 09:08:01;;;;;;;9.53;8.23;;;;;;;;;;4940069;29;20695;-81
2023/10/24 09:11:07;;;;;;;12.80;9.23;;;;;;;;;;4929078;29;20179;-82
2023/10/24 09:14:11;;;;;;;10.60;8.77;;;;;;;;;;4940305;29;20188;-82
2023/10/24 09:17:16;;;;;;;14.43;10.10;;;;;;;;;;4951509;29;20259;-82
2023/10/24 09:20:29;;;;;;;15.93;9.60;;;;;;;;;;4950199;29;20207;-82
2023/10/24 09:23:38;;;;;;;12.83;10.63;;;;;;;;;;4940148;29;20184;-82
2023/10/24 09:26:59;;;;;;;13.90;10.80;;;;;;;;;;4940032;29;20231;-81
2023/10/24 09:30:10;;;;;;;14.73;10.97;;;;;;;;;;4941226;29;20195;-81
2023/10/24 09:33:15;;;;;;;12.30;11.00;;;;;;;;;;4940175;29;20530;-82
2023/10/24 09:36:26;;;;;;;14.90;10.53;;;;;;;;;;4928741;29;20195;-81
2023/10/24 09:39:30;;;;;;;13.47;11.30;;;;;;;;;;4940765;29;20192;-81
2023/10/24 09:42:36;;;;;;;16.50;12.10;;;;;;;;;;4928585;29;20223;-82
2023/10/24 09:45:44;;;;;;;14.30;11.43;;;;;;;;;;4940116;29;20199;-82
2023/10/24 09:52:43;;;;;;;17.27;13.17;;;;;;;;;;4940119;29;20192;-82
2023/10/24 09:55:50;;;;;;;14.23;12.13;;;;;;;;;;4939844;29;20187;-82
2023/10/24 09:59:23;;;;;;;18.30;10.80;;;;;;;;;;4940615;29;20655;-81
2023/10/24 10:02:28;;;;;;;12.50;10.77;;;;;;;;;;4928548;29;20226;-82
2023/10/24 10:05:34;;;;;;;12.80;10.17;;;;;;;;;;4928867;29;20199;-82
2023/10/24 10:08:41;;;;;;;15.80;11.93;;;;;;;;;;4929396;29;20585;-82
2023/10/24 10:11:47;;;;;;;13.73;11.23;;;;;;;;;;4929108;29;20191;-81
2023/10/24 10:15:21;;;;;;;15.57;11.77;;;;;;;;;;4928898;29;20277;-81
2023/10/24 10:18:32;;;;;;;15.00;12.10;;;;;;;;;;4928109;29;20234;-81
2023/10/24 10:21:44;;;;;;;11.90;10.70;;;;;;;;;;4950686;29;20219;-81
2023/10/24 10:25:06;;;;;;;15.23;11.47;;;;;;;;;;4940275;29;20191;-81
2023/10/24 10:28:40;;;;;;;14.87;10.70;;;;;;;;;;4928214;29;20592;-81
2023/10/24 10:31:56;;;;;;;12.40;10.77;;;;;;;;;;4938907;29;20195;-81
2023/10/24 10:35:01;;;;;;;12.23;10.53;;;;;;;;;;4939222;29;20665;-81
2023/10/24 10:38:05;;;;;;;13.27;11.33;;;;;;;;;;4938692;29;20239;-80
2023/10/24 10:41:21;;;;;;;15.37;11.10;;;;;;;;;;4949738;29;20530;-81
2023/10/24 10:44:42;;;;;;;12.77;10.37;;;;;;;;;;4939308;29;20542;-81
2023/10/24 10:47:46;;;;;;;16.13;10.03;;;;;;;;;;4939263;29;20255;-80
2023/10/24 10:50:51;;;;;;;10.87;9.67;;;;;;;;;;4939488;29;20216;-80
2023/10/24 10:54:10;;;;;;;11.93;10.60;;;;;;;;;;4940171;29;20184;-81
2023/10/24 10:57:22;;;;;;;11.47;10.20;;;;;;;;;;4938632;29;20223;-81
2023/10/24 11:00:37;;;;;;;14.13;10.70;;;;;;;;;;4938962;29;20191;-81
2023/10/24 11:03:43;;;;;;;11.67;10.47;;;;;;;;;;4938780;29;20184;-80
2023/10/24 11:06:55;;;;;;;12.43;11.00;;;;;;;;;;4938437;29;20219;-81
2023/10/24 11:10:13;;;;;;;16.00;11.17;;;;;;;;;;4938448;29;20195;-81
2023/10/24 11:13:40;;;;;;;16.40;14.00;;;;;;;;;;4937454;29;20645;-80
2023/10/24 11:16:46;;;;;;;15.60;11.90;;;;;;;;;;4938798;29;20211;-80
2023/10/24 11:19:50;;;;;;;14.30;12.80;;;;;;;;;;4938932;29;20273;-81
2023/10/24 11:22:54;;;;;;;15.87;13.20;;;;;;;;;;4938478;29;20223;-82
2023/10/24 11:26:00;;;;;;;13.87;12.37;;;;;;;;;;4940069;29;20692;-83
2023/10/24 11:29:05;;;;;;;13.80;12.30;;;;;;;;;;4939946;29;20196;-83
2023/10/24 11:32:09;;;;;;;14.37;12.97;;;;;;;;;;4949549;29;20192;-83
2023/10/24 11:35:13;;;;;;;15.47;13.40;;;;;;;;;;4949121;29;20199;-83
2023/10/24 11:38:17;;;;;;;14.63;13.13;;;;;;;;;;4938652;29;20234;-82
2023/10/24 11:41:22;;;;;;;18.60;12.90;;;;;;;;;;4939257;29;20199;-82
2023/10/24 11:44:26;;;;;;;14.67;13.03;;;;;;;;;;4949363;29;20195;-83
2023/10/24 11:47:31;;;;;;;15.40;13.17;;;;;;;;;;4941148;29;20235;-84
2023/10/24 11:50:43;;;;;;;15.67;13.07;;;;;;;;;;4940153;29;20199;-84
2023/10/24 11:53:48;;;;;;;14.97;13.37;;;;;;;;;;4940780;29;20183;-83
2023/10/24 11:56:53;;;;;;;16.17;12.97;;;;;;;;;;4941430;29;20231;-84
2023/10/24 11:59:57;;;;;;;15.97;14.27;;;;;;;;;;4941949;29;20200;-84
2023/10/24 12:03:04;;;;;;;19.30;15.43;;;;;;;;;;4951688;29;20222;-84
2023/10/24 12:06:09;;;;;;;16.53;14.27;;;;;;;;;;4951914;29;20204;-84
2023/10/24 12:09:13;;;;;;;15.90;14.27;;;;;;;;;;4951077;29;20199;-84
2023/10/24 12:12:17;;;;;;;21.27;14.80;;;;;;;;;;4941077;29;20195;-84
2023/10/24 12:15:22;;;;;;;18.10;14.80;;;;;;;;;;4952129;29;20191;-84
2023/10/24 12:18:25;;;;;;;18.57;14.40;;;;;;;;;;4940834;29;20238;-82
2023/10/24 12:21:30;;;;;;;20.10;16.30;;;;;;;;;;4950698;29;20552;-82
2023/10/24 12:24:34;;;;;;;28.03;23.63;;;;;;;;;;4940163;29;20190;-83
2023/10/24 12:27:38;;;;;;;24.37;20.03;;;;;;;;;;4950768;29;20725;-83
2023/10/24 12:30:43;;;;;;;21.57;17.27;;;;;;;;;;4940920;29;20195;-83
2023/10/24 12:33:48;;;;;;;19.73;16.70;;;;;;;;;;4940915;29;20278;-83
2023/10/24 12:36:54;;;;;;;19.97;17.63;;;;;;;;;;4951253;29;20723;-83
2023/10/24 12:39:58;;;;;;;19.87;17.77;;;;;;;;;;4940234;29;20203;-82
2023/10/24 12:43:03;;;;;;;21.90;18.17;;;;;;;;;;4951407;29;20227;-82
2023/10/24 12:46:07;;;;;;;18.93;16.93;;;;;;;;;;4951246;29;20199;-82
2023/10/24 12:49:11;;;;;;;20.83;17.30;;;;;;;;;;4951859;29;20195;-82
2023/10/24 12:52:15;;;;;;;21.00;18.13;;;;;;;;;;4940916;29;20661;-81
2023/10/24 12:55:20;;;;;;;34.90;27.33;;;;;;;;;;4940539;29;20195;-82
2023/10/24 12:58:24;;;;;;;23.17;19.23;;;;;;;;;;4940981;29;20231;-82
2023/10/24 13:01:29;;;;;;;24.40;20.63;;;;;;;;;;4929561;29;20192;-82
2023/10/24 13:04:33;;;;;;;28.77;21.83;;;;;;;;;;4929816;29;20192;-81
2023/10/24 13:07:38;;;;;;;24.80;21.17;;;;;;;;;;4940596;29;20238;-81
2023/10/24 13:10:42;;;;;;;22.50;19.40;;;;;;;;;;4940582;29;20195;-81
2023/10/24 13:13:46;;;;;;;23.03;19.73;;;;;;;;;;4940516;29;20191;-82
2023/10/24 13:16:51;;;;;;;27.60;23.30;;;;;;;;;;4939533;29;20200;-83
2023/10/24 13:19:55;;;;;;;24.50;20.37;;;;;;;;;;4940806;29;20549;-84
2023/10/24 13:22:59;;;;;;;34.03;25.63;;;;;;;;;;4938780;29;20222;-84
2023/10/24 13:26:03;;;;;;;25.53;20.07;;;;;;;;;;4950952;29;20196;-84
2023/10/24 13:29:08;;;;;;;21.57;17.30;;;;;;;;;;4950894;29;20200;-84
2023/10/24 13:32:12;;;;;;;21.90;16.83;;;;;;;;;;4938835;29;20554;-81
2023/10/24 13:35:16;;;;;;;20.00;17.03;;;;;;;;;;4950071;28;20566;-81
2023/10/24 13:38:20;;;;;;;19.33;16.00;;;;;;;;;;4942009;29;20234;-83
2023/10/24 13:41:25;;;;;;;20.90;17.00;;;;;;;;;;4943382;29;20191;-83
2023/10/24 13:44:30;;;;;;;23.90;18.73;;;;;;;;;;4943969;29;20669;-81
2023/10/24 13:47:34;;;;;;;25.10;20.73;;;;;;;;;;4943271;29;20592;-81
2023/10/24 13:50:38;;;;;;;42.43;33.97;;;;;;;;;;4943773;29;20203;-83
2023/10/24 13:53:42;;;;;;;30.77;21.67;;;;;;;;;;4943202;29;20184;-83
2023/10/24 13:56:47;;;;;;;26.10;21.67;;;;;;;;;;4943564;29;20191;-84
2023/10/24 13:59:51;;;;;;;27.40;21.43;;;;;;;;;;4943211;29;20191;-83
2023/10/24 14:02:56;;;;;;;20.80;18.10;;;;;;;;;;4942584;29;20227;-81
2023/10/24 14:06:00;;;;;;;18.50;16.50;;;;;;;;;;4942544;29;20588;-81
2023/10/24 14:09:04;;;;;;;20.07;15.87;;;;;;;;;;4953601;29;20194;-83
2023/10/24 14:12:08;;;;;;;18.67;14.53;;;;;;;;;;4941388;29;20278;-81
2023/10/24 14:15:14;;;;;;;17.47;14.27;;;;;;;;;;4941479;29;20195;-83
2023/10/24 14:18:19;;;;;;;16.20;14.00;;;;;;;;;;4984025;23;20734;-83
2023/10/24 14:21:23;;;;;;;15.17;13.20;;;;;;;;;;4943479;29;20203;-83
2023/10/24 14:24:27;;;;;;;19.80;14.27;;;;;;;;;;4944081;29;20231;-83
2023/10/24 14:27:31;;;;;;;16.30;14.40;;;;;;;;;;4943779;29;20235;-83
2023/10/24 14:30:36;;;;;;;18.47;14.60;;;;;;;;;;4921631;29;20195;-83
2023/10/24 14:33:42;;;;;;;14.80;12.33;;;;;;;;;;4920712;29;20557;-82
2023/10/24 14:36:46;;;;;;;15.80;13.13;;;;;;;;;;4942685;29;20199;-84
2023/10/24 14:39:52;;;;;;;15.97;12.83;;;;;;;;;;4920219;29;20195;-83
2023/10/24 14:42:58;;;;;;;15.90;13.00;;;;;;;;;;4932029;29;20584;-84
2023/10/24 14:46:04;;;;;;;15.10;11.70;;;;;;;;;;4920469;29;20196;-83
2023/10/24 14:49:08;;;;;;;14.70;13.17;;;;;;;;;;4919034;29;20234;-83
2023/10/24 14:52:13;;;;;;;12.73;9.83;;;;;;;;;;4941489;29;20537;-82
2023/10/24 14:55:17;;;;;;;12.50;10.80;;;;;;;;;;4920101;29;20188;-83
2023/10/24 14:58:31;;;;;;;12.30;10.67;;;;;;;;;;4920104;29;20227;-84
2023/10/24 15:01:37;;;;;;;10.87;9.77;;;;;;;;;;4924818;29;20553;-82
2023/10/24 15:05:54;;;;;;;15.50;9.50;;;;;;;;;;4927817;29;20562;-82
2023/10/24 15:14:22;;;;;;;11.43;9.97;;;;;;;;;;4949094;29;20199;-84
2023/10/24 15:17:41;;;;;;;24.67;18.23;;;;;;;;;;4922056;29;20239;-83
2023/10/24 15:25:13;;;;;;;11.53;10.33;;;;;;;;;;4943469;29;20204;-82
2023/10/24 15:28:20;;;;;;;11.60;9.27;;;;;;;;;;4940533;29;20727;-83
2023/10/24 15:31:28;;;;;;;9.37;8.33;;;;;;;;;;4907682;29;20648;-83
2023/10/24 15:34:32;;;;;;;10.33;9.23;;;;;;;;;;4928905;29;20184;-83
2023/10/24 15:39:07;;;;;;;14.17;12.77;;;;;;;;;;4919350;29;20229;-83
2023/10/24 15:42:14;;;;;;;10.53;9.47;;;;;;;;;;4908057;29;20211;-83
2023/10/24 15:45:24;;;;;;;10.67;8.40;;;;;;;;;;4907931;29;20666;-83
2023/10/24 15:49:46;;;;;;;7.90;7.20;;;;;;;;;;4916160;29;20231;-83
2023/10/24 15:57:34;;;;;;;8.67;7.77;;;;;;;;;;4937923;29;20233;-82
2023/10/24 16:00:42;;;;;;;9.10;7.30;;;;;;;;;;4927968;29;20184;-82
2023/10/24 16:03:49;;;;;;;7.50;6.77;;;;;;;;;;4896759;29;20219;-82
2023/10/24 16:07:01;;;;;;;77.23;35.33;;;;;;;;;;4916682;29;20184;-82
2023/10/24 16:10:07;;;;;;;21.80;14.23;;;;;;;;;;4928657;29;20199;-82
2023/10/24 16:13:12;;;;;;;15.60;12.07;;;;;;;;;;4906284;29;20196;-82
2023/10/24 16:16:25;;;;;;;12.57;11.27;;;;;;;;;;4927042;29;20557;-81
2023/10/24 16:19:57;;;;;;;11.57;10.37;;;;;;;;;;4930651;29;20227;-82
2023/10/24 16:23:02;;;;;;;12.17;10.20;;;;;;;;;;4918757;29;20569;-82
2023/10/24 16:26:09;;;;;;;17.17;15.37;;;;;;;;;;4918386;29;20191;-83
2023/10/24 16:29:31;;;;;;;15.07;13.47;;;;;;;;;;4930261;29;20187;-82
2023/10/24 16:32:43;;;;;;;15.17;12.07;;;;;;;;;;4928338;29;20191;-82
2023/10/24 16:36:10;;;;;;;13.90;12.33;;;;;;;;;;4929596;29;20195;-81
2023/10/24 16:39:15;;;;;;;13.30;11.90;;;;;;;;;;4916592;29;20231;-81
2023/10/24 16:42:29;;;;;;;14.77;12.17;;;;;;;;;;4917386;29;20195;-81
2023/10/24 16:45:47;;;;;;;13.80;11.53;;;;;;;;;;4915895;29;20191;-82
2023/10/24 16:48:52;;;;;;;14.90;11.87;;;;;;;;;;4895977;29;20227;-81
2023/10/24 16:52:05;;;;;;;14.27;12.03;;;;;;;;;;4934594;29;20677;-81
2023/10/24 16:55:13;;;;;;;14.37;11.13;;;;;;;;;;4906449;29;20665;-82
2023/10/24 16:58:19;;;;;;;15.70;13.00;;;;;;;;;;4915917;29;20234;-83
2023/10/24 17:02:42;;;;;;;17.37;13.27;;;;;;;;;;4938527;29;20191;-83
2023/10/24 17:05:54;;;;;;;24.93;16.37;;;;;;;;;;4938658;29;20668;-82
2023/10/24 17:08:59;;;;;;;21.50;15.37;;;;;;;;;;4926164;29;20294;-81
2023/10/24 17:12:12;;;;;;;21.50;15.77;;;;;;;;;;4920506;29;20196;-83
2023/10/24 17:15:38;;;;;;;16.63;12.67;;;;;;;;;;4925276;29;20211;-81
2023/10/24 17:18:44;;;;;;;19.40;16.67;;;;;;;;;;4916499;29;20747;-82
2023/10/24 17:21:55;;;;;;;17.60;14.80;;;;;;;;;;4930948;29;20195;-82
2023/10/24 17:25:02;;;;;;;17.57;14.93;;;;;;;;;;4930315;29;20632;-81
2023/10/24 17:28:08;;;;;;;15.30;13.07;;;;;;;;;;4909177;29;20234;-81
2023/10/24 17:31:13;;;;;;;15.87;13.50;;;;;;;;;;4941084;29;20203;-81
2023/10/24 17:34:18;;;;;;;17.67;14.30;;;;;;;;;;4919061;29;20195;-83
2023/10/24 17:37:24;;;;;;;22.63;14.50;;;;;;;;;;4930253;29;20724;-81
2023/10/24 17:40:30;;;;;;;17.53;15.23;;;;;;;;;;4920313;29;20199;-81
2023/10/24 17:43:34;;;;;;;19.97;13.93;;;;;;;;;;4919833;29;20223;-81
2023/10/24 17:46:39;;;;;;;15.93;13.60;;;;;;;;;;4931260;29;20199;-82
2023/10/24 17:49:44;;;;;;;21.00;14.57;;;;;;;;;;4930715;29;20215;-82
2023/10/24 17:52:49;;;;;;;16.00;14.17;;;;;;;;;;4918909;29;20195;-80
2023/10/24 17:56:02;;;;;;;18.97;13.90;;;;;;;;;;4909425;29;20685;-82
2023/10/24 17:59:13;;;;;;;15.90;12.63;;;;;;;;;;4910229;29;20231;-83
2023/10/24 18:02:21;;;;;;;16.73;12.23;;;;;;;;;;4920825;29;20565;-83
2023/10/24 18:05:28;;;;;;;14.73;12.37;;;;;;;;;;4920071;29;20223;-83
2023/10/24 18:08:45;;;;;;;14.97;12.00;;;;;;;;;;4930540;29;20242;-83
2023/10/24 18:12:03;;;;;;;16.07;12.60;;;;;;;;;;4930003;29;20199;-83
2023/10/24 18:15:11;;;;;;;13.57;11.70;;;;;;;;;;4919740;29;20200;-82
2023/10/24 18:18:17;;;;;;;16.77;12.80;;;;;;;;;;4908524;29;20229;-83
2023/10/24 18:21:29;;;;;;;15.33;12.57;;;;;;;;;;4910963;29;20215;-84
2023/10/24 18:25:50;;;;;;;17.80;12.60;;;;;;;;;;4942108;29;20235;-83
2023/10/24 18:28:59;;;;;;;19.97;14.43;;;;;;;;;;4908819;29;20226;-83
2023/10/24 18:32:07;;;;;;;17.90;14.53;;;;;;;;;;4925014;29;20659;-83
2023/10/24 18:35:22;;;;;;;19.13;14.37;;;;;;;;;;4909450;29;20187;-82
2023/10/24 18:47:06;;;;;;;17.47;12.70;;;;;;;;;;4928998;29;20200;-82
2023/10/24 18:50:10;;;;;;;16.40;13.63;;;;;;;;;;4896630;29;20690;-82
2023/10/24 18:53:21;;;;;;;16.07;12.73;;;;;;;;;;4907579;29;20199;-82